Time;durP1;ratioP1;P1;durP2;ratioP2;P2;SDS_P1;SDS_P2;PMS_P1;PMS_P2;Temp;Humidity;BMP_temperature;BMP_pressure;BME280_temperature;BME280_humidity;BME280_pressure;Samples;Min_cycle;Max_cycle;Signal;HPM_P1;HPM_P2
2021/11/16 00:01:41;;;;;;;0.63;0.20;;;25.30;53.00;;;;;;5088413;28;20108;-76
2021/11/16 00:04:10;;;;;;;0.25;0.13;;;25.50;51.70;;;;;;5079128;28;20036;-77
2021/11/16 00:06:37;;;;;;;1.83;0.30;;;25.40;52.60;;;;;;5077661;28;20072;-76
2021/11/16 00:09:06;;;;;;;1.00;0.15;;;25.30;53.50;;;;;;5087796;28;20020;-74
2021/11/16 00:11:35;;;;;;;5.05;0.30;;;25.50;56.50;;;;;;5067155;28;20107;-77
2021/11/16 00:14:02;;;;;;;1.02;0.20;;;25.90;55.80;;;;;;5084347;28;20576;-76
2021/11/16 00:16:30;;;;;;;0.85;0.40;;;26.10;51.60;;;;;;5087342;28;20039;-76
2021/11/16 00:19:00;;;;;;;0.93;0.30;;;26.10;51.80;;;;;;5088617;28;20031;-76
2021/11/16 00:21:29;;;;;;;2.25;0.32;;;26.20;53.00;;;;;;5084077;28;20028;-75
2021/11/16 00:23:58;;;;;;;0.98;0.20;;;26.30;52.50;;;;;;5071318;28;20032;-75
2021/11/16 00:26:26;;;;;;;0.88;0.10;;;26.60;54.30;;;;;;5080030;28;20039;-75
2021/11/16 00:28:54;;;;;;;1.08;0.50;;;26.90;51.70;;;;;;5079071;28;20021;-75
2021/11/16 00:31:34;;;;;;;0.20;0.10;;;26.60;49.10;;;;;;5077104;27;20416;-74
2021/11/16 00:34:03;;;;;;;2.95;0.22;;;26.20;50.80;;;;;;5060032;28;20377;-78
2021/11/16 00:36:32;;;;;;;1.05;0.25;;;26.40;53.50;;;;;;5060573;28;20085;-76
2021/11/16 00:39:01;;;;;;;2.88;0.40;;;26.70;52.60;;;;;;5057764;28;20070;-77
2021/11/16 00:41:28;;;;;;;1.40;0.20;;;26.80;48.90;;;;;;5062885;28;20045;-77
2021/11/16 00:43:56;;;;;;;1.27;0.52;;;26.80;53.30;;;;;;5067083;28;20025;-76
2021/11/16 00:46:23;;;;;;;1.13;0.22;;;26.40;49.30;;;;;;5062106;28;20024;-76
2021/11/16 00:48:50;;;;;;;0.60;0.10;;;26.20;49.00;;;;;;5064886;28;20937;-77
2021/11/16 00:51:18;;;;;;;0.57;0.20;;;26.00;50.20;;;;;;5067321;28;20071;-74
2021/11/16 00:53:45;;;;;;;0.60;0.20;;;25.50;51.00;;;;;;5065633;28;20033;-76
2021/11/16 00:56:12;;;;;;;5.25;0.63;;;25.30;50.60;;;;;;5066738;28;20036;-75
2021/11/16 00:58:40;;;;;;;1.02;0.17;;;25.40;53.10;;;;;;5064806;28;20099;-75
2021/11/16 01:01:08;;;;;;;2.92;0.20;;;25.50;50.20;;;;;;5059370;28;20017;-75
2021/11/16 01:03:35;;;;;;;0.65;0.20;;;25.40;49.70;;;;;;5050543;28;20029;-74
2021/11/16 01:06:04;;;;;;;1.27;0.43;;;25.80;51.10;;;;;;5061329;28;20484;-75
2021/11/16 01:08:31;;;;;;;1.13;0.25;;;25.80;50.00;;;;;;5052113;28;20064;-76
2021/11/16 01:10:59;;;;;;;1.65;0.50;;;25.50;55.10;;;;;;5062821;28;20032;-74
2021/11/16 01:13:28;;;;;;;1.52;0.38;;;26.10;53.20;;;;;;5066339;28;20028;-75
2021/11/16 01:15:56;;;;;;;0.85;0.63;;;26.90;54.10;;;;;;5061955;28;20032;-73
2021/11/16 01:18:25;;;;;;;1.02;0.25;;;27.50;52.00;;;;;;5056681;28;20021;-74
2021/11/16 01:20:54;;;;;;;0.47;0.20;;;28.10;50.80;;;;;;5061415;28;20496;-75
2021/11/16 01:23:22;;;;;;;1.23;0.20;;;28.60;52.00;;;;;;5063917;28;20113;-73
2021/11/16 01:25:49;;;;;;;1.35;0.28;;;28.70;49.70;;;;;;5063761;28;20164;-74
2021/11/16 01:28:23;;;;;;;0.85;0.20;;;28.30;50.50;;;;;;5066621;28;20092;-74
2021/11/16 01:30:53;;;;;;;0.95;0.30;;;28.40;53.80;;;;;;5057719;28;20053;-75
2021/11/16 01:33:27;;;;;;;1.15;0.30;;;28.40;54.40;;;;;;5060991;28;20059;-74
2021/11/16 01:35:55;;;;;;;0.67;0.37;;;28.90;51.90;;;;;;5056822;28;20029;-73
2021/11/16 01:38:24;;;;;;;2.15;0.30;;;28.70;48.10;;;;;;5055385;28;20102;-74
2021/11/16 01:40:52;;;;;;;1.95;0.30;;;28.30;47.60;;;;;;5062733;28;20097;-75
2021/11/16 01:43:20;;;;;;;0.50;0.10;;;28.10;48.00;;;;;;5052648;28;20488;-73
2021/11/16 01:45:48;;;;;;;1.67;0.20;;;27.20;47.00;;;;;;5046946;28;20689;-74
2021/11/16 01:48:16;;;;;;;1.50;0.28;;;26.70;47.30;;;;;;5051047;28;20036;-75
2021/11/16 01:50:45;;;;;;;1.70;0.38;;;27.00;49.70;;;;;;5051227;28;20043;-73
2021/11/16 01:53:15;;;;;;;3.45;0.60;;;27.60;51.60;;;;;;5044121;28;20045;-75
2021/11/16 01:55:43;;;;;;;2.42;0.43;;;27.90;47.60;;;;;;5042585;28;20025;-74
2021/11/16 01:58:10;;;;;;;2.78;0.52;;;27.90;47.60;;;;;;5050641;28;20029;-74
2021/11/16 02:00:41;;;;;;;1.25;0.50;;;28.20;49.20;;;;;;5044555;28;20477;-75
2021/11/16 02:03:11;;;;;;;2.35;0.40;;;28.30;46.30;;;;;;5036348;28;20060;-74
2021/11/16 02:05:42;;;;;;;7.28;0.65;;;28.50;47.80;;;;;;5045838;28;20025;-74
2021/11/16 02:08:11;;;;;;;3.00;0.60;;;28.90;50.30;;;;;;5050092;28;20021;-75
2021/11/16 02:10:41;;;;;;;0.52;0.20;;;29.00;47.00;;;;;;5041463;28;20162;-74
2021/11/16 02:13:09;;;;;;;2.60;0.22;;;29.30;47.20;;;;;;5050094;28;20476;-74
2021/11/16 02:15:37;;;;;;;1.15;0.38;;;29.50;47.00;;;;;;5043209;28;20480;-73
2021/11/16 02:18:08;;;;;;;0.85;0.30;;;29.30;46.80;;;;;;5045715;28;20467;-74
2021/11/16 02:20:37;;;;;;;2.03;0.30;;;29.60;49.70;;;;;;5047817;28;20195;-74
2021/11/16 02:23:06;;;;;;;0.80;0.20;;;29.90;50.30;;;;;;5042065;28;20491;-74
2021/11/16 02:25:33;;;;;;;5.68;0.50;;;29.60;46.20;;;;;;5042014;28;20032;-75
2021/11/16 02:28:02;;;;;;;0.88;0.20;;;29.20;46.60;;;;;;5045016;28;20082;-74
2021/11/16 02:30:30;;;;;;;1.23;0.30;;;29.10;48.70;;;;;;5043423;28;20059;-75
2021/11/16 02:32:59;;;;;;;0.77;0.30;;;28.80;45.70;;;;;;5040666;28;20033;-74
2021/11/16 02:35:27;;;;;;;2.95;0.20;;;28.20;46.30;;;;;;5045966;28;20866;-74
2021/11/16 02:37:56;;;;;;;2.78;0.40;;;27.70;46.50;;;;;;5050822;28;20026;-74
2021/11/16 02:40:25;;;;;;;2.42;0.45;;;27.50;47.70;;;;;;5046977;28;20131;-75
2021/11/16 02:42:53;;;;;;;1.38;0.20;;;27.20;46.10;;;;;;5050399;28;20484;-73
2021/11/16 02:45:22;;;;;;;2.15;0.20;;;26.80;49.00;;;;;;5039856;28;20036;-73
2021/11/16 02:47:50;;;;;;;2.08;0.30;;;26.80;50.40;;;;;;5048561;28;20021;-74
2021/11/16 02:50:19;;;;;;;1.88;0.20;;;26.50;47.90;;;;;;5048042;28;21652;-75
2021/11/16 02:52:47;;;;;;;1.75;0.40;;;26.20;47.40;;;;;;5036502;28;20045;-75
2021/11/16 02:55:16;;;;;;;1.10;0.20;;;26.10;48.40;;;;;;5036244;28;20140;-74
2021/11/16 02:57:44;;;;;;;0.93;0.15;;;26.50;49.70;;;;;;5045803;28;20356;-75
2021/11/16 03:00:14;;;;;;;3.25;0.20;;;26.70;46.50;;;;;;5046042;28;20490;-75
2021/11/16 03:02:44;;;;;;;1.85;0.57;;;26.70;47.20;;;;;;5036991;28;20048;-74
2021/11/16 03:05:12;;;;;;;2.50;0.30;;;25.90;53.20;;;;;;5040329;28;20096;-73
2021/11/16 03:07:48;;;;;;;2.83;0.60;;;25.50;54.60;;;;;;5040615;28;20056;-73
2021/11/16 03:10:17;;;;;;;;;;;25.60;53.90;;;;;;5039241;28;20036;-74
2021/11/16 03:12:45;;;;;;;0.85;0.20;;;25.70;54.10;;;;;;5042786;28;20241;-74
2021/11/16 03:15:12;;;;;;;2.50;0.28;;;25.60;53.00;;;;;;5042685;28;20353;-74
2021/11/16 03:17:40;;;;;;;1.48;0.30;;;25.60;53.30;;;;;;5041400;28;20025;-75
2021/11/16 03:20:13;;;;;;;1.50;0.30;;;25.60;53.50;;;;;;5041032;28;20066;-74
2021/11/16 03:22:55;;;;;;;2.53;0.30;;;25.70;54.20;;;;;;5043008;28;20519;-75
2021/11/16 03:25:28;;;;;;;6.32;0.88;;;26.20;56.00;;;;;;5040645;28;20033;-75
2021/11/16 03:28:05;;;;;;;1.13;0.30;;;26.30;52.40;;;;;;5038728;28;20025;-75
2021/11/16 03:30:34;;;;;;;1.58;0.20;;;25.50;53.40;;;;;;5046033;28;20088;-76
2021/11/16 03:33:01;;;;;;;0.77;0.30;;;25.00;54.60;;;;;;5040612;28;20021;-75
2021/11/16 03:35:29;;;;;;;2.65;0.30;;;24.60;56.50;;;;;;5040908;28;20029;-75
2021/11/16 03:37:58;;;;;;;0.68;0.15;;;24.20;55.70;;;;;;5044325;28;20380;-74
2021/11/16 03:40:30;;;;;;;1.27;0.70;;;24.00;56.30;;;;;;5044381;28;20515;-75
2021/11/16 03:42:58;;;;;;;1.08;0.63;;;23.90;56.90;;;;;;5041593;28;20025;-76
2021/11/16 03:45:27;;;;;;;2.15;0.30;;;24.20;57.60;;;;;;5039947;28;20103;-76
2021/11/16 03:47:56;;;;;;;2.15;0.40;;;24.10;58.50;;;;;;5037036;28;20045;-74
2021/11/16 03:50:26;;;;;;;2.60;0.38;;;24.30;58.70;;;;;;5037567;28;20108;-75
2021/11/16 03:52:56;;;;;;;1.95;0.40;;;24.80;57.20;;;;;;5041630;28;20484;-75
2021/11/16 03:55:28;;;;;;;1.27;0.30;;;24.90;56.80;;;;;;5043198;28;20115;-74
2021/11/16 03:57:56;;;;;;;1.83;0.40;;;25.00;57.10;;;;;;5047351;28;20024;-77
2021/11/16 04:00:29;;;;;;;2.58;0.40;;;25.00;57.60;;;;;;5039813;28;20037;-75
2021/11/16 04:02:59;;;;;;;2.53;0.43;;;25.10;56.90;;;;;;5041519;28;20033;-72
2021/11/16 04:05:27;;;;;;;2.20;0.30;;;25.10;56.30;;;;;;5043707;28;20032;-74
2021/11/16 04:07:56;;;;;;;4.35;0.38;;;25.10;56.90;;;;;;5044779;28;20537;-77
2021/11/16 04:10:24;;;;;;;2.47;0.40;;;25.00;57.40;;;;;;5042041;28;20048;-74
2021/11/16 04:12:52;;;;;;;1.63;0.20;;;25.00;58.50;;;;;;5041528;28;20025;-76
2021/11/16 04:15:22;;;;;;;2.05;0.30;;;24.90;57.40;;;;;;5037286;28;20025;-76
2021/11/16 04:17:52;;;;;;;0.47;0.22;;;24.80;58.60;;;;;;5038955;28;20142;-74
2021/11/16 04:20:23;;;;;;;2.63;0.47;;;24.60;58.30;;;;;;5040051;28;20025;-76
2021/11/16 04:22:52;;;;;;;3.53;0.57;;;24.60;57.30;;;;;;5040653;28;20017;-75
2021/11/16 04:25:20;;;;;;;1.27;0.20;;;24.60;57.20;;;;;;5040711;28;20033;-76
2021/11/16 04:27:48;;;;;;;0.85;0.30;;;24.50;57.20;;;;;;5040241;28;20036;-76
2021/11/16 04:30:18;;;;;;;0.75;0.25;;;24.40;57.30;;;;;;5042291;28;20132;-75
2021/11/16 04:32:46;;;;;;;2.05;0.20;;;24.20;57.60;;;;;;5039182;28;20096;-74
2021/11/16 04:35:15;;;;;;;1.25;0.20;;;24.10;58.40;;;;;;5036774;28;20061;-73
2021/11/16 04:37:44;;;;;;;0.35;0.17;;;24.10;58.50;;;;;;5045239;28;20024;-72
2021/11/16 04:40:14;;;;;;;1.02;0.17;;;24.30;57.90;;;;;;5046020;28;20017;-73
2021/11/16 04:42:42;;;;;;;0.75;0.20;;;24.20;56.90;;;;;;5042868;28;20025;-74
2021/11/16 04:45:14;;;;;;;1.23;0.50;;;24.20;57.50;;;;;;5041444;28;20030;-74
2021/11/16 04:48:03;;;;;;;1.08;0.20;;;24.30;57.60;;;;;;5039229;28;20037;-77
2021/11/16 04:50:55;;;;;;;2.78;0.30;;;24.20;56.30;;;;;;5041448;28;20044;-75
2021/11/16 05:04:21;;;;;;;0.90;0.25;;;23.50;57.70;;;;;;5049199;28;20040;-77
2021/11/16 05:06:51;;;;;;;1.02;0.30;;;23.40;57.60;;;;;;5046272;28;20040;-78
2021/11/16 05:09:19;;;;;;;2.22;0.20;;;23.60;58.40;;;;;;5049051;28;20037;-76
2021/11/16 05:11:47;;;;;;;3.33;0.60;;;23.70;57.50;;;;;;5035260;28;20141;-77
2021/11/16 05:14:14;;;;;;;1.55;0.22;;;23.60;57.50;;;;;;5036155;28;20032;-75
2021/11/16 05:16:42;;;;;;;3.38;0.43;;;23.30;57.90;;;;;;5049469;28;20436;-76
2021/11/16 05:19:09;;;;;;;0.63;0.10;;;23.20;58.50;;;;;;5047020;28;20167;-78
2021/11/16 05:21:37;;;;;;;3.17;0.43;;;23.20;58.10;;;;;;5040345;28;20021;-72
2021/11/16 05:24:04;;;;;;;1.13;0.30;;;23.20;57.50;;;;;;5046783;28;20021;-73
2021/11/16 05:26:32;;;;;;;1.98;0.32;;;23.30;57.90;;;;;;5055003;28;20033;-75
2021/11/16 05:29:00;;;;;;;3.20;0.35;;;23.30;58.80;;;;;;5050795;28;20410;-77
2021/11/16 05:31:28;;;;;;;1.75;0.30;;;23.20;57.90;;;;;;5051727;28;20174;-73
2021/11/16 05:33:56;;;;;;;1.50;0.20;;;23.00;57.40;;;;;;5043657;28;20039;-73
2021/11/16 05:36:24;;;;;;;0.20;0.20;;;22.80;58.20;;;;;;5043820;28;20032;-73
2021/11/16 05:38:53;;;;;;;1.30;0.10;;;22.80;57.90;;;;;;5040238;28;20030;-75
2021/11/16 05:41:21;;;;;;;0.95;0.20;;;22.70;58.10;;;;;;5051555;28;20037;-74
2021/11/16 05:43:49;;;;;;;0.73;0.10;;;22.70;58.10;;;;;;5039013;28;20076;-74
2021/11/16 05:46:22;;;;;;;1.33;0.20;;;22.70;59.00;;;;;;5051990;28;20083;-74
2021/11/16 05:48:55;;;;;;;2.47;0.40;;;22.60;58.10;;;;;;5046815;28;20494;-75
2021/11/16 05:51:24;;;;;;;0.82;0.20;;;22.50;58.40;;;;;;5050453;28;20045;-74
2021/11/16 05:54:02;;;;;;;4.80;0.55;;;22.40;59.00;;;;;;5040440;28;20113;-75
2021/11/16 05:56:37;;;;;;;3.42;0.75;;;22.30;58.30;;;;;;5046425;28;20111;-74
2021/11/16 05:59:05;;;;;;;1.45;0.20;;;22.00;58.80;;;;;;5046862;28;20107;-74
2021/11/16 06:01:35;;;;;;;0.28;0.10;;;21.90;59.00;;;;;;5037039;28;20379;-76
2021/11/16 06:04:02;;;;;;;2.35;0.50;;;22.00;59.90;;;;;;5046713;28;20028;-74
2021/11/16 06:06:31;;;;;;;1.48;0.45;;;22.00;59.00;;;;;;5047022;28;20444;-72
2021/11/16 06:09:00;;;;;;;6.50;0.32;;;21.80;59.90;;;;;;5045619;28;20032;-75
2021/11/16 06:11:30;;;;;;;2.38;0.20;;;21.80;60.50;;;;;;5050633;28;20095;-73
2021/11/16 06:13:58;;;;;;;1.83;0.40;;;21.90;61.60;;;;;;5045988;28;20051;-72
2021/11/16 06:16:26;;;;;;;0.73;0.10;;;21.70;59.90;;;;;;5042069;28;20101;-73
2021/11/16 06:18:56;;;;;;;2.13;0.45;;;21.60;60.40;;;;;;5041204;28;20029;-74
2021/11/16 06:21:24;;;;;;;0.73;0.68;;;21.60;60.50;;;;;;5049824;28;20043;-75
2021/11/16 06:23:53;;;;;;;4.20;0.38;;;21.50;60.50;;;;;;5044403;28;20036;-72
2021/11/16 06:26:22;;;;;;;1.50;0.22;;;21.50;61.70;;;;;;5049009;28;20041;-72
2021/11/16 06:28:51;;;;;;;6.20;0.68;;;21.30;61.60;;;;;;5042879;28;20028;-72
2021/11/16 06:31:26;;;;;;;3.75;0.60;;;21.20;61.90;;;;;;5041392;28;20049;-75
2021/11/16 06:34:02;;;;;;;2.05;0.28;;;21.20;62.40;;;;;;5045389;28;20035;-75
2021/11/16 06:36:36;;;;;;;1.30;0.40;;;21.20;63.10;;;;;;5050499;28;20032;-74
2021/11/16 06:39:19;;;;;;;2.72;1.20;;;21.20;62.80;;;;;;5050144;28;20032;-76
2021/11/16 06:41:48;;;;;;;2.72;0.40;;;21.10;62.60;;;;;;5039394;28;20027;-75
2021/11/16 06:44:19;;;;;;;0.68;0.32;;;20.90;62.90;;;;;;5045322;28;20044;-75
2021/11/16 06:46:48;;;;;;;2.17;0.50;;;20.90;63.60;;;;;;5047742;28;20021;-77
2021/11/16 06:49:18;;;;;;;1.13;0.35;;;20.90;63.60;;;;;;5043604;28;20122;-75
2021/11/16 06:51:48;;;;;;;2.88;0.70;;;20.70;63.50;;;;;;5050105;28;20033;-73
2021/11/16 06:54:17;;;;;;;2.00;0.60;;;20.60;64.20;;;;;;5049355;28;20111;-75
2021/11/16 06:56:48;;;;;;;2.30;0.52;;;20.70;64.50;;;;;;5047646;28;20032;-74
2021/11/16 06:59:19;;;;;;;1.67;0.40;;;20.60;63.90;;;;;;5041841;28;20115;-76
2021/11/16 07:01:47;;;;;;;2.33;0.85;;;20.50;64.30;;;;;;5049992;28;20047;-77
2021/11/16 07:04:14;;;;;;;3.28;0.47;;;20.40;65.60;;;;;;5046732;28;20403;-75
2021/11/16 07:06:45;;;;;;;2.45;0.82;;;20.30;65.30;;;;;;5045075;28;20434;-72
2021/11/16 07:09:14;;;;;;;2.55;0.68;;;20.10;65.30;;;;;;5038964;28;20025;-73
2021/11/16 07:11:45;;;;;;;1.83;0.63;;;20.10;66.10;;;;;;5039889;28;20055;-73
2021/11/16 07:14:15;;;;;;;1.15;0.43;;;20.00;66.90;;;;;;5036765;28;20037;-74
2021/11/16 07:16:55;;;;;;;2.38;0.40;;;20.00;66.60;;;;;;5043029;28;20057;-75
2021/11/16 07:19:42;;;;;;;0.70;0.40;;;19.90;66.80;;;;;;5038460;28;20404;-73
2021/11/16 07:22:31;;;;;;;1.30;0.35;;;19.80;67.30;;;;;;5040057;28;20021;-72
2021/11/16 07:25:05;;;;;;;7.82;0.75;;;19.70;67.40;;;;;;5041427;28;20478;-73
2021/11/16 07:27:44;;;;;;;2.58;0.35;;;19.60;67.60;;;;;;5038931;28;20028;-73
2021/11/16 07:30:24;;;;;;;1.13;0.40;;;19.40;68.50;;;;;;5038606;28;20045;-73
2021/11/16 07:32:53;;;;;;;2.08;0.40;;;19.30;68.80;;;;;;5038874;28;20081;-73
2021/11/16 07:35:26;;;;;;;2.67;0.98;;;19.20;69.40;;;;;;5041535;28;20717;-73
2021/11/16 07:38:00;;;;;;;2.42;0.30;;;19.10;69.10;;;;;;5047371;28;20040;-73
2021/11/16 07:40:29;;;;;;;3.60;0.40;;;19.00;70.00;;;;;;5039985;28;20033;-73
2021/11/16 07:43:04;;;;;;;2.72;0.30;;;18.90;69.40;;;;;;5040168;28;20020;-73
2021/11/16 07:45:43;;;;;;;1.70;0.83;;;18.90;69.70;;;;;;5036384;28;20030;-73
2021/11/16 07:48:18;;;;;;;2.50;1.17;;;18.80;69.90;;;;;;5041274;28;20033;-73
2021/11/16 07:50:50;;;;;;;6.37;0.50;;;18.80;71.10;;;;;;5034997;28;20035;-73
2021/11/16 07:53:23;;;;;;;1.52;0.90;;;18.70;70.60;;;;;;5040392;28;20029;-73
2021/11/16 07:56:10;;;;;;;2.65;0.63;;;18.60;70.80;;;;;;5041551;28;20037;-73
2021/11/16 07:58:47;;;;;;;4.03;0.63;;;18.40;71.30;;;;;;5042988;28;20476;-73
2021/11/16 08:01:27;;;;;;;0.60;0.30;;;18.40;71.50;;;;;;5038334;28;20083;-73
2021/11/16 08:04:08;;;;;;;3.08;0.80;;;18.30;71.40;;;;;;5036215;28;20033;-72
2021/11/16 08:06:40;;;;;;;1.60;0.40;;;18.30;71.90;;;;;;5043503;28;20043;-72
2021/11/16 08:09:30;;;;;;;3.60;0.40;;;18.20;72.10;;;;;;5037468;28;20081;-74
2021/11/16 08:15:02;;;;;;;1.23;0.25;;;18.00;72.80;;;;;;5034924;28;20040;-74
2021/11/16 08:17:32;;;;;;;2.47;0.50;;;17.90;73.30;;;;;;5032656;28;20029;-74
2021/11/16 08:20:06;;;;;;;2.13;0.40;;;17.90;73.30;;;;;;5042810;28;20021;-75
2021/11/16 08:22:34;;;;;;;2.65;0.43;;;17.90;73.50;;;;;;5035785;28;20025;-76
2021/11/16 08:25:01;;;;;;;1.60;0.32;;;17.90;73.50;;;;;;5039023;28;20067;-75
2021/11/16 08:27:38;;;;;;;1.88;0.50;;;17.90;73.80;;;;;;5039716;28;20033;-74
2021/11/16 08:30:09;;;;;;;4.60;0.50;;;17.90;73.70;;;;;;5036342;28;20050;-72
2021/11/16 08:32:40;;;;;;;0.70;0.40;;;17.90;73.70;;;;;;5031653;28;20424;-74
2021/11/16 08:35:16;;;;;;;3.47;0.40;;;17.90;73.80;;;;;;5040085;28;20502;-74
2021/11/16 08:37:45;;;;;;;5.40;1.70;;;17.90;74.10;;;;;;5042142;28;20036;-74
2021/11/16 08:40:16;;;;;;;1.08;0.40;;;17.90;74.30;;;;;;5044059;28;20029;-74
2021/11/16 08:42:52;;;;;;;3.58;0.98;;;17.80;73.80;;;;;;5035490;28;20025;-72
2021/11/16 08:45:25;;;;;;;1.75;0.55;;;17.80;73.80;;;;;;5040085;28;20032;-74
2021/11/16 08:47:57;;;;;;;3.95;0.70;;;17.80;73.90;;;;;;5036225;28;20033;-74
2021/11/16 08:50:34;;;;;;;1.15;1.08;;;17.80;73.90;;;;;;5039643;28;20029;-74
2021/11/16 08:53:08;;;;;;;1.40;0.43;;;17.70;73.80;;;;;;5045921;28;20060;-74
2021/11/16 08:55:38;;;;;;;4.95;0.75;;;17.70;74.30;;;;;;5041306;28;20033;-73
2021/11/16 08:58:12;;;;;;;3.85;0.60;;;17.70;74.50;;;;;;5040807;28;20032;-75
2021/11/16 09:00:49;;;;;;;1.52;0.60;;;17.60;74.70;;;;;;5040354;28;20025;-74
2021/11/16 09:03:28;;;;;;;4.80;1.02;;;17.50;75.00;;;;;;5044171;28;20096;-74
2021/11/16 09:05:57;;;;;;;2.38;1.13;;;17.40;75.80;;;;;;5043992;28;20448;-74
2021/11/16 09:08:33;;;;;;;2.45;0.40;;;17.30;76.00;;;;;;5041364;28;20036;-76
2021/11/16 09:11:15;;;;;;;2.88;0.50;;;17.20;75.70;;;;;;5041335;28;20813;-75
2021/11/16 09:13:44;;;;;;;1.02;0.30;;;17.30;76.50;;;;;;5049700;28;20025;-73
2021/11/16 09:16:18;;;;;;;1.13;0.40;;;17.30;76.00;;;;;;5041765;28;20365;-74
2021/11/16 09:18:48;;;;;;;2.45;0.43;;;17.20;76.30;;;;;;5050243;28;20120;-75
2021/11/16 09:21:20;;;;;;;12.27;1.38;;;17.10;77.10;;;;;;5034959;28;20025;-74
2021/11/16 09:24:05;;;;;;;2.88;0.65;;;17.00;77.30;;;;;;5048613;28;20028;-75
2021/11/16 09:26:57;;;;;;;1.45;0.40;;;17.10;77.50;;;;;;5039884;28;20427;-75
2021/11/16 09:29:26;;;;;;;3.63;0.65;;;17.10;77.60;;;;;;5047521;28;20044;-74
2021/11/16 09:32:00;;;;;;;1.35;0.40;;;17.00;78.50;;;;;;5037359;28;20029;-74
2021/11/16 09:34:30;;;;;;;0.82;0.30;;;17.00;78.60;;;;;;5036376;28;20025;-74
2021/11/16 09:37:06;;;;;;;5.07;1.27;;;16.90;78.30;;;;;;5042540;28;20489;-74
2021/11/16 09:39:46;;;;;;;2.45;0.50;;;16.90;78.50;;;;;;5043289;28;20500;-74
2021/11/16 09:42:22;;;;;;;1.42;0.50;;;16.80;78.60;;;;;;5039146;28;20033;-73
2021/11/16 09:44:55;;;;;;;7.05;1.52;;;16.70;79.10;;;;;;5040201;28;20119;-74
2021/11/16 09:47:29;;;;;;;3.90;0.95;;;16.70;79.20;;;;;;5043720;28;20025;-73
2021/11/16 09:50:09;;;;;;;1.52;0.50;;;16.70;79.90;;;;;;5041293;28;20045;-77
2021/11/16 09:52:45;;;;;;;4.03;0.50;;;16.60;79.80;;;;;;5045005;28;20028;-75
2021/11/16 09:55:17;;;;;;;3.60;0.70;;;16.60;79.90;;;;;;5048034;28;20037;-75
2021/11/16 09:57:47;;;;;;;1.77;0.38;;;16.70;79.50;;;;;;5038224;28;20480;-74
2021/11/16 10:00:20;;;;;;;1.58;0.50;;;16.60;79.20;;;;;;5043679;28;20117;-76
2021/11/16 10:03:06;;;;;;;1.63;0.45;;;16.60;79.40;;;;;;5045828;28;20032;-73
2021/11/16 10:05:45;;;;;;;2.33;0.40;;;16.60;79.30;;;;;;5046124;28;20056;-74
2021/11/16 10:08:15;;;;;;;3.45;0.65;;;16.60;80.00;;;;;;5045598;28;20070;-74
2021/11/16 10:10:46;;;;;;;2.40;0.40;;;16.60;80.30;;;;;;5035505;28;20045;-72
2021/11/16 10:13:16;;;;;;;3.70;0.55;;;16.60;79.60;;;;;;5049550;28;20120;-75
2021/11/16 10:15:50;;;;;;;2.22;0.73;;;16.60;80.70;;;;;;5045274;28;20036;-73
2021/11/16 10:18:20;;;;;;;4.25;0.50;;;16.70;80.20;;;;;;5046706;28;20116;-74
2021/11/16 10:20:48;;;;;;;3.25;0.52;;;16.70;80.00;;;;;;5041830;28;20029;-73
2021/11/16 10:23:34;;;;;;;0.68;0.30;;;16.70;80.20;;;;;;5039204;28;20105;-75
2021/11/16 10:26:03;;;;;;;1.40;0.30;;;16.70;80.60;;;;;;5045677;28;20041;-75
2021/11/16 10:28:35;;;;;;;1.17;0.43;;;16.60;80.80;;;;;;5045948;28;20032;-73
2021/11/16 10:31:04;;;;;;;2.53;0.40;;;16.70;80.80;;;;;;5039016;28;20582;-75
2021/11/16 10:33:35;;;;;;;2.15;0.40;;;16.70;81.00;;;;;;5039199;28;20083;-75
2021/11/16 10:36:14;;;;;;;2.75;0.40;;;16.60;81.30;;;;;;5049904;28;20057;-75
2021/11/16 10:38:47;;;;;;;1.20;0.40;;;16.60;81.40;;;;;;5042215;28;20030;-74
2021/11/16 10:41:23;;;;;;;2.58;0.50;;;16.60;81.10;;;;;;5037053;28;20125;-74
2021/11/16 10:43:55;;;;;;;0.50;0.20;;;16.60;81.40;;;;;;5047187;28;20406;-75
2021/11/16 10:46:26;;;;;;;2.38;0.60;;;16.60;81.50;;;;;;5042448;28;20087;-73
2021/11/16 10:48:56;;;;;;;0.93;0.30;;;16.60;81.80;;;;;;5040462;28;20383;-74
2021/11/16 10:51:29;;;;;;;0.82;0.45;;;16.70;81.90;;;;;;5040676;28;20473;-74
2021/11/16 10:54:00;;;;;;;2.60;0.55;;;16.70;81.00;;;;;;5042463;28;20025;-73
2021/11/16 10:56:32;;;;;;;3.08;0.77;;;16.70;81.10;;;;;;5040967;28;20108;-74
2021/11/16 10:59:16;;;;;;;0.82;0.38;;;16.70;81.20;;;;;;5038400;28;20024;-73
2021/11/16 11:01:56;;;;;;;1.80;0.40;;;16.70;80.90;;;;;;5036643;28;20049;-73
2021/11/16 11:04:44;;;;;;;1.05;0.38;;;16.70;81.10;;;;;;5036548;28;20500;-73
2021/11/16 11:07:13;;;;;;;1.08;0.30;;;16.60;81.10;;;;;;5044180;28;20032;-73
2021/11/16 11:09:41;;;;;;;3.40;1.27;;;16.60;81.30;;;;;;5042147;28;20500;-75
2021/11/16 11:12:32;;;;;;;1.00;0.45;;;16.60;81.30;;;;;;5035525;28;20374;-74
2021/11/16 11:15:00;;;;;;;3.30;0.45;;;16.50;81.90;;;;;;5040111;28;20029;-75
2021/11/16 11:17:38;;;;;;;2.28;0.40;;;16.40;82.30;;;;;;5041980;28;20162;-75
2021/11/16 11:20:13;;;;;;;2.22;0.73;;;16.30;82.30;;;;;;5046245;28;20119;-74
2021/11/16 11:22:43;;;;;;;1.98;0.38;;;16.30;82.70;;;;;;5049723;28;20036;-74
2021/11/16 11:27:58;;;;;;;4.43;0.50;;;16.20;83.20;;;;;;5041721;28;20064;-74
2021/11/16 11:30:26;;;;;;;2.22;0.70;;;16.10;83.60;;;;;;5043818;28;20049;-72
2021/11/16 11:32:55;;;;;;;2.45;0.75;;;16.10;84.00;;;;;;5040977;28;20034;-76
2021/11/16 11:35:27;;;;;;;1.15;0.30;;;16.00;83.80;;;;;;5043430;28;20070;-75
2021/11/16 11:38:11;;;;;;;3.10;0.47;;;16.00;84.20;;;;;;5045700;28;20086;-73
2021/11/16 11:40:40;;;;;;;2.50;0.40;;;15.90;84.60;;;;;;5043724;28;20028;-74
2021/11/16 11:43:18;;;;;;;2.83;0.65;;;15.90;84.90;;;;;;5045900;28;20511;-74
2021/11/16 11:45:47;;;;;;;1.10;0.45;;;15.80;85.00;;;;;;5035092;28;20033;-74
2021/11/16 11:48:21;;;;;;;3.17;0.82;;;15.70;85.90;;;;;;5039023;28;20033;-74
2021/11/16 11:50:54;;;;;;;2.65;0.30;;;15.70;86.30;;;;;;5040726;28;20132;-76
2021/11/16 11:53:30;;;;;;;1.63;0.40;;;15.70;86.80;;;;;;5044316;28;20029;-72
2021/11/16 11:56:04;;;;;;;6.15;0.50;;;15.60;87.20;;;;;;5039682;28;20082;-75
2021/11/16 11:58:37;;;;;;;3.20;0.32;;;15.60;88.40;;;;;;5040386;28;20029;-74
2021/11/16 12:01:13;;;;;;;2.97;0.75;;;15.50;88.30;;;;;;5040819;28;21395;-75
2021/11/16 12:03:44;;;;;;;3.45;0.80;;;15.40;88.30;;;;;;5035292;28;20056;-75
2021/11/16 12:06:12;;;;;;;6.00;1.42;;;15.30;88.40;;;;;;5038430;28;20480;-74
2021/11/16 12:08:40;;;;;;;1.98;0.80;;;15.30;88.70;;;;;;5038276;28;20549;-75
2021/11/16 12:11:08;;;;;;;2.83;0.77;;;15.30;89.00;;;;;;5041784;28;20198;-76
2021/11/16 12:13:40;;;;;;;1.63;0.70;;;15.10;89.20;;;;;;5037523;28;20033;-76
2021/11/16 12:16:44;;;;;;;1.67;0.40;;;15.00;89.80;;;;;;5043949;28;20029;-73
2021/11/16 12:19:13;;;;;;;1.30;0.70;;;15.00;90.20;;;;;;5040605;28;20085;-75
2021/11/16 12:21:43;;;;;;;2.03;0.85;;;14.90;90.50;;;;;;5041144;28;20029;-75
2021/11/16 12:24:30;;;;;;;6.65;0.50;;;14.80;90.90;;;;;;5042967;28;20048;-76
2021/11/16 12:27:03;;;;;;;2.83;0.50;;;14.70;91.20;;;;;;5041054;28;20033;-77
2021/11/16 12:29:34;;;;;;;1.85;0.70;;;14.70;91.50;;;;;;5044888;28;20514;-77
2021/11/16 12:32:46;;;;;;;3.28;1.33;;;14.60;91.80;;;;;;5043615;28;20120;-75
2021/11/16 12:35:19;;;;;;;3.20;0.60;;;14.60;92.10;;;;;;5001031;28;20176;-74
2021/11/16 12:37:48;;;;;;;2.40;0.73;;;14.50;92.50;;;;;;5034073;28;20040;-74
2021/11/16 12:40:41;;;;;;;3.08;0.60;;;14.50;92.90;;;;;;5046037;28;20100;-76
2021/11/16 12:43:24;;;;;;;1.23;0.73;;;14.50;93.20;;;;;;5041661;28;20375;-77
2021/11/16 12:46:01;;;;;;;2.00;1.00;;;14.50;93.50;;;;;;5047020;28;20040;-77
2021/11/16 12:48:48;;;;;;;5.68;1.13;;;14.40;93.50;;;;;;5039304;28;20041;-76
2021/11/16 12:51:19;;;;;;;1.83;1.10;;;14.40;93.90;;;;;;5035687;28;20041;-76
2021/11/16 12:54:02;;;;;;;4.13;0.70;;;14.40;94.10;;;;;;5041785;28;20033;-76
2021/11/16 12:56:42;;;;;;;2.97;0.65;;;14.30;94.30;;;;;;5048341;28;20033;-75
2021/11/16 12:59:11;;;;;;;2.75;0.90;;;14.20;94.60;;;;;;5039459;28;20047;-75
2021/11/16 13:01:47;;;;;;;2.58;0.95;;;14.20;94.80;;;;;;5038025;28;20399;-75
2021/11/16 13:04:17;;;;;;;1.55;0.80;;;14.10;95.10;;;;;;5030575;28;20033;-75
2021/11/16 13:07:33;;;;;;;4.90;0.90;;;14.10;95.30;;;;;;5037039;28;20111;-74
2021/11/16 13:10:15;;;;;;;1.30;0.52;;;14.10;95.50;;;;;;5024038;28;20057;-74
2021/11/16 13:12:45;;;;;;;1.70;0.70;;;14.00;96.00;;;;;;5034553;28;20029;-74
2021/11/16 13:15:25;;;;;;;2.42;1.08;;;14.00;96.30;;;;;;5046852;28;20119;-75
2021/11/16 13:18:00;;;;;;;4.13;0.70;;;13.90;96.50;;;;;;5044397;28;20040;-75
2021/11/16 13:20:34;;;;;;;1.63;0.75;;;13.90;96.60;;;;;;5048463;28;20025;-74
2021/11/16 13:23:15;;;;;;;1.83;0.60;;;13.90;96.80;;;;;;5040067;28;20025;-73
2021/11/16 13:25:46;;;;;;;4.20;1.00;;;13.90;97.20;;;;;;5043737;28;20024;-77
2021/11/16 13:31:31;;;;;;;3.25;0.50;;;13.80;97.60;;;;;;5036579;28;20396;-74
2021/11/16 13:34:33;;;;;;;3.42;1.13;;;13.80;97.70;;;;;;5040659;28;20118;-73